sensor_id;sensor_type;location;lat;lon;timestamp;P1;durP1;ratioP1;P2;durP2;ratioP2
72611;SDS011;60655;52.182;4.474;2024-01-30T00:00:58;15.88;;;7.32;;
72611;SDS011;60655;52.182;4.474;2024-01-30T00:05:00;14.50;;;7.35;;
72611;SDS011;60655;52.182;4.474;2024-01-30T00:09:01;17.77;;;7.43;;
72611;SDS011;60655;52.182;4.474;2024-01-30T00:13:03;17.50;;;7.30;;
72611;SDS011;60655;52.182;4.474;2024-01-30T00:15:04;17.55;;;7.35;;
72611;SDS011;60655;52.182;4.474;2024-01-30T00:17:05;18.30;;;8.15;;
72611;SDS011;60655;52.182;4.474;2024-01-30T00:21:08;16.92;;;7.47;;
72611;SDS011;60655;52.182;4.474;2024-01-30T00:25:10;17.33;;;7.88;;
72611;SDS011;60655;52.182;4.474;2024-01-30T00:29:12;17.95;;;7.55;;
72611;SDS011;60655;52.182;4.474;2024-01-30T00:31:19;15.90;;;6.88;;
72611;SDS011;60655;52.182;4.474;2024-01-30T00:33:20;17.35;;;8.00;;
72611;SDS011;60655;52.182;4.474;2024-01-30T00:35:22;16.90;;;7.80;;
72611;SDS011;60655;52.182;4.474;2024-01-30T00:39:24;17.05;;;7.90;;
72611;SDS011;60655;52.182;4.474;2024-01-30T00:43:25;15.65;;;7.00;;
72611;SDS011;60655;52.182;4.474;2024-01-30T00:45:26;16.00;;;6.95;;
72611;SDS011;60655;52.182;4.474;2024-01-30T00:49:29;17.38;;;6.82;;
72611;SDS011;60655;52.182;4.474;2024-01-30T00:53:31;12.50;;;6.45;;
72611;SDS011;60655;52.182;4.474;2024-01-30T00:57:32;17.15;;;6.60;;
72611;SDS011;60655;52.182;4.474;2024-01-30T00:59:33;16.20;;;6.90;;
72611;SDS011;60655;52.182;4.474;2024-01-30T01:01:34;16.38;;;7.22;;
72611;SDS011;60655;52.182;4.474;2024-01-30T01:05:36;16.50;;;7.30;;
72611;SDS011;60655;52.182;4.474;2024-01-30T01:09:38;15.98;;;7.25;;
72611;SDS011;60655;52.182;4.474;2024-01-30T01:13:39;14.05;;;6.45;;
72611;SDS011;60655;52.182;4.474;2024-01-30T01:15:40;16.00;;;7.20;;
72611;SDS011;60655;52.182;4.474;2024-01-30T01:19:42;16.48;;;6.72;;
72611;SDS011;60655;52.182;4.474;2024-01-30T01:23:44;14.43;;;6.72;;
72611;SDS011;60655;52.182;4.474;2024-01-30T01:25:44;14.82;;;7.18;;
72611;SDS011;60655;52.182;4.474;2024-01-30T01:29:52;14.20;;;6.97;;
72611;SDS011;60655;52.182;4.474;2024-01-30T01:31:53;14.40;;;6.93;;
72611;SDS011;60655;52.182;4.474;2024-01-30T01:33:54;18.23;;;7.65;;
72611;SDS011;60655;52.182;4.474;2024-01-30T01:35:55;14.82;;;7.40;;
72611;SDS011;60655;52.182;4.474;2024-01-30T01:39:59;14.43;;;6.45;;
72611;SDS011;60655;52.182;4.474;2024-01-30T01:42:00;12.93;;;6.78;;
72611;SDS011;60655;52.182;4.474;2024-01-30T01:44:01;17.58;;;6.68;;
72611;SDS011;60655;52.182;4.474;2024-01-30T01:48:03;13.43;;;6.28;;
72611;SDS011;60655;52.182;4.474;2024-01-30T01:50:04;14.13;;;6.97;;
72611;SDS011;60655;52.182;4.474;2024-01-30T01:52:05;18.13;;;7.43;;
72611;SDS011;60655;52.182;4.474;2024-01-30T01:54:07;14.65;;;7.20;;
72611;SDS011;60655;52.182;4.474;2024-01-30T01:56:08;14.85;;;6.35;;
72611;SDS011;60655;52.182;4.474;2024-01-30T01:58:10;15.85;;;7.22;;
72611;SDS011;60655;52.182;4.474;2024-01-30T02:00:13;16.65;;;7.15;;
72611;SDS011;60655;52.182;4.474;2024-01-30T02:02:14;14.07;;;7.10;;
72611;SDS011;60655;52.182;4.474;2024-01-30T02:04:18;18.08;;;7.45;;
72611;SDS011;60655;52.182;4.474;2024-01-30T02:06:19;17.42;;;7.88;;
72611;SDS011;60655;52.182;4.474;2024-01-30T02:08:20;14.45;;;7.20;;
72611;SDS011;60655;52.182;4.474;2024-01-30T02:10:21;14.95;;;7.05;;
72611;SDS011;60655;52.182;4.474;2024-01-30T02:14:23;15.82;;;6.65;;
72611;SDS011;60655;52.182;4.474;2024-01-30T02:16:24;13.32;;;6.53;;
72611;SDS011;60655;52.182;4.474;2024-01-30T02:20:25;14.88;;;6.68;;
72611;SDS011;60655;52.182;4.474;2024-01-30T02:22:30;15.32;;;7.22;;
72611;SDS011;60655;52.182;4.474;2024-01-30T02:24:34;15.00;;;6.75;;
72611;SDS011;60655;52.182;4.474;2024-01-30T02:26:35;15.38;;;6.80;;
72611;SDS011;60655;52.182;4.474;2024-01-30T02:30:37;19.23;;;6.85;;
72611;SDS011;60655;52.182;4.474;2024-01-30T02:34:38;15.32;;;5.80;;
72611;SDS011;60655;52.182;4.474;2024-01-30T02:38:44;14.63;;;6.53;;
72611;SDS011;60655;52.182;4.474;2024-01-30T02:40:46;13.98;;;6.95;;
72611;SDS011;60655;52.182;4.474;2024-01-30T02:44:48;13.88;;;6.47;;
72611;SDS011;60655;52.182;4.474;2024-01-30T02:48:50;18.30;;;7.40;;
72611;SDS011;60655;52.182;4.474;2024-01-30T02:52:51;12.13;;;5.97;;
72611;SDS011;60655;52.182;4.474;2024-01-30T02:56:53;16.42;;;6.95;;
72611;SDS011;60655;52.182;4.474;2024-01-30T03:00:55;14.88;;;6.43;;
72611;SDS011;60655;52.182;4.474;2024-01-30T03:04:56;13.52;;;6.10;;
72611;SDS011;60655;52.182;4.474;2024-01-30T03:06:57;13.30;;;5.90;;
72611;SDS011;60655;52.182;4.474;2024-01-30T03:08:58;13.05;;;6.50;;
72611;SDS011;60655;52.182;4.474;2024-01-30T03:13:00;12.80;;;6.28;;
72611;SDS011;60655;52.182;4.474;2024-01-30T03:15:01;12.35;;;5.75;;
72611;SDS011;60655;52.182;4.474;2024-01-30T03:19:03;12.80;;;6.35;;
72611;SDS011;60655;52.182;4.474;2024-01-30T03:21:05;15.20;;;6.65;;
72611;SDS011;60655;52.182;4.474;2024-01-30T03:23:06;17.20;;;7.22;;
72611;SDS011;60655;52.182;4.474;2024-01-30T03:27:08;12.40;;;5.50;;
72611;SDS011;60655;52.182;4.474;2024-01-30T03:29:09;14.07;;;6.85;;
72611;SDS011;60655;52.182;4.474;2024-01-30T03:31:12;14.27;;;6.90;;
72611;SDS011;60655;52.182;4.474;2024-01-30T03:33:15;12.80;;;6.78;;
72611;SDS011;60655;52.182;4.474;2024-01-30T03:35:16;13.38;;;6.93;;
72611;SDS011;60655;52.182;4.474;2024-01-30T03:37:16;15.80;;;6.80;;
72611;SDS011;60655;52.182;4.474;2024-01-30T03:39:17;12.85;;;6.57;;
72611;SDS011;60655;52.182;4.474;2024-01-30T03:41:18;14.30;;;6.57;;
72611;SDS011;60655;52.182;4.474;2024-01-30T03:45:20;15.57;;;6.60;;
72611;SDS011;60655;52.182;4.474;2024-01-30T03:49:22;14.07;;;6.25;;
72611;SDS011;60655;52.182;4.474;2024-01-30T03:51:23;14.15;;;6.55;;
72611;SDS011;60655;52.182;4.474;2024-01-30T03:53:23;14.98;;;7.07;;
72611;SDS011;60655;52.182;4.474;2024-01-30T03:57:25;16.88;;;6.75;;
72611;SDS011;60655;52.182;4.474;2024-01-30T03:59:26;16.38;;;6.60;;
72611;SDS011;60655;52.182;4.474;2024-01-30T04:01:27;13.82;;;6.45;;
72611;SDS011;60655;52.182;4.474;2024-01-30T04:05:29;16.33;;;7.18;;
72611;SDS011;60655;52.182;4.474;2024-01-30T04:07:29;14.98;;;6.90;;
72611;SDS011;60655;52.182;4.474;2024-01-30T04:09:31;13.93;;;6.80;;
72611;SDS011;60655;52.182;4.474;2024-01-30T04:11:33;14.10;;;6.70;;
72611;SDS011;60655;52.182;4.474;2024-01-30T04:13:34;17.45;;;7.45;;
72611;SDS011;60655;52.182;4.474;2024-01-30T04:15:34;13.63;;;6.88;;
72611;SDS011;60655;52.182;4.474;2024-01-30T04:17:35;13.57;;;6.63;;
72611;SDS011;60655;52.182;4.474;2024-01-30T04:19:39;19.10;;;7.35;;
72611;SDS011;60655;52.182;4.474;2024-01-30T04:21:41;18.58;;;6.93;;
72611;SDS011;60655;52.182;4.474;2024-01-30T04:23:42;14.88;;;6.50;;
72611;SDS011;60655;52.182;4.474;2024-01-30T04:25:43;16.52;;;7.32;;
72611;SDS011;60655;52.182;4.474;2024-01-30T04:27:43;16.80;;;7.18;;
72611;SDS011;60655;52.182;4.474;2024-01-30T04:29:44;15.90;;;6.75;;
72611;SDS011;60655;52.182;4.474;2024-01-30T04:31:45;14.68;;;7.10;;
72611;SDS011;60655;52.182;4.474;2024-01-30T04:33:46;14.57;;;6.50;;
72611;SDS011;60655;52.182;4.474;2024-01-30T04:35:47;15.00;;;7.03;;
72611;SDS011;60655;52.182;4.474;2024-01-30T04:37:48;14.13;;;6.38;;
72611;SDS011;60655;52.182;4.474;2024-01-30T04:39:49;16.55;;;7.28;;
72611;SDS011;60655;52.182;4.474;2024-01-30T04:41:50;15.93;;;7.13;;
72611;SDS011;60655;52.182;4.474;2024-01-30T04:45:52;13.35;;;6.00;;
72611;SDS011;60655;52.182;4.474;2024-01-30T04:47:52;15.25;;;6.50;;
72611;SDS011;60655;52.182;4.474;2024-01-30T04:49:53;15.95;;;6.45;;
72611;SDS011;60655;52.182;4.474;2024-01-30T04:51:54;13.32;;;6.38;;
72611;SDS011;60655;52.182;4.474;2024-01-30T04:53:56;14.57;;;6.80;;
72611;SDS011;60655;52.182;4.474;2024-01-30T04:55:57;16.63;;;6.82;;
72611;SDS011;60655;52.182;4.474;2024-01-30T04:57:58;17.85;;;7.03;;
72611;SDS011;60655;52.182;4.474;2024-01-30T04:59:59;16.35;;;6.90;;
72611;SDS011;60655;52.182;4.474;2024-01-30T05:02:00;17.50;;;7.32;;
72611;SDS011;60655;52.182;4.474;2024-01-30T05:04:01;12.57;;;6.78;;
72611;SDS011;60655;52.182;4.474;2024-01-30T05:06:02;13.57;;;6.53;;
72611;SDS011;60655;52.182;4.474;2024-01-30T05:08:04;15.90;;;6.32;;
72611;SDS011;60655;52.182;4.474;2024-01-30T05:10:05;14.07;;;6.68;;
72611;SDS011;60655;52.182;4.474;2024-01-30T05:12:06;13.40;;;6.78;;
72611;SDS011;60655;52.182;4.474;2024-01-30T05:14:08;15.93;;;6.75;;
72611;SDS011;60655;52.182;4.474;2024-01-30T05:16:09;15.35;;;6.80;;
72611;SDS011;60655;52.182;4.474;2024-01-30T05:18:10;14.50;;;6.63;;
72611;SDS011;60655;52.182;4.474;2024-01-30T05:20:11;13.25;;;7.00;;
72611;SDS011;60655;52.182;4.474;2024-01-30T05:22:12;14.02;;;6.50;;
72611;SDS011;60655;52.182;4.474;2024-01-30T05:24:16;12.73;;;6.20;;
72611;SDS011;60655;52.182;4.474;2024-01-30T05:26:16;12.80;;;6.05;;
72611;SDS011;60655;52.182;4.474;2024-01-30T05:28:18;14.35;;;6.80;;
72611;SDS011;60655;52.182;4.474;2024-01-30T05:30:19;15.75;;;7.22;;
72611;SDS011;60655;52.182;4.474;2024-01-30T05:32:20;12.73;;;6.32;;
72611;SDS011;60655;52.182;4.474;2024-01-30T05:34:21;14.88;;;6.90;;
72611;SDS011;60655;52.182;4.474;2024-01-30T05:36:22;14.73;;;6.90;;
72611;SDS011;60655;52.182;4.474;2024-01-30T05:38:23;14.05;;;6.88;;
72611;SDS011;60655;52.182;4.474;2024-01-30T05:40:23;11.25;;;5.45;;
72611;SDS011;60655;52.182;4.474;2024-01-30T05:42:24;18.25;;;6.63;;
72611;SDS011;60655;52.182;4.474;2024-01-30T05:44:26;18.73;;;6.82;;
72611;SDS011;60655;52.182;4.474;2024-01-30T05:46:27;18.65;;;7.82;;
72611;SDS011;60655;52.182;4.474;2024-01-30T05:48:28;17.92;;;6.72;;
72611;SDS011;60655;52.182;4.474;2024-01-30T05:50:29;15.45;;;6.78;;
72611;SDS011;60655;52.182;4.474;2024-01-30T05:52:30;14.45;;;5.72;;
72611;SDS011;60655;52.182;4.474;2024-01-30T05:54:31;11.10;;;5.97;;
72611;SDS011;60655;52.182;4.474;2024-01-30T05:56:32;17.00;;;6.53;;
72611;SDS011;60655;52.182;4.474;2024-01-30T05:58:33;15.52;;;6.40;;
72611;SDS011;60655;52.182;4.474;2024-01-30T06:00:34;17.77;;;6.35;;
72611;SDS011;60655;52.182;4.474;2024-01-30T06:02:35;19.88;;;6.07;;
72611;SDS011;60655;52.182;4.474;2024-01-30T06:04:36;16.48;;;6.53;;
72611;SDS011;60655;52.182;4.474;2024-01-30T06:06:37;13.85;;;6.82;;
72611;SDS011;60655;52.182;4.474;2024-01-30T06:08:38;15.88;;;6.38;;
72611;SDS011;60655;52.182;4.474;2024-01-30T06:10:39;14.65;;;6.40;;
72611;SDS011;60655;52.182;4.474;2024-01-30T06:12:40;16.05;;;6.72;;
72611;SDS011;60655;52.182;4.474;2024-01-30T06:14:41;15.80;;;7.20;;
72611;SDS011;60655;52.182;4.474;2024-01-30T06:16:43;18.23;;;7.85;;
72611;SDS011;60655;52.182;4.474;2024-01-30T06:18:43;16.08;;;6.72;;
72611;SDS011;60655;52.182;4.474;2024-01-30T06:20:44;13.75;;;6.18;;
72611;SDS011;60655;52.182;4.474;2024-01-30T06:22:45;16.05;;;6.82;;
72611;SDS011;60655;52.182;4.474;2024-01-30T06:24:46;19.50;;;6.72;;
72611;SDS011;60655;52.182;4.474;2024-01-30T06:26:49;13.77;;;6.47;;
72611;SDS011;60655;52.182;4.474;2024-01-30T06:28:50;15.15;;;6.25;;
72611;SDS011;60655;52.182;4.474;2024-01-30T06:30:50;18.33;;;6.82;;
72611;SDS011;60655;52.182;4.474;2024-01-30T06:32:51;15.50;;;6.40;;
72611;SDS011;60655;52.182;4.474;2024-01-30T06:34:52;18.55;;;7.18;;
72611;SDS011;60655;52.182;4.474;2024-01-30T06:36:53;16.48;;;6.63;;
72611;SDS011;60655;52.182;4.474;2024-01-30T06:38:54;16.30;;;6.43;;
72611;SDS011;60655;52.182;4.474;2024-01-30T06:40:55;17.42;;;6.82;;
72611;SDS011;60655;52.182;4.474;2024-01-30T06:42:56;14.07;;;6.15;;
72611;SDS011;60655;52.182;4.474;2024-01-30T06:44:57;15.73;;;5.78;;
72611;SDS011;60655;52.182;4.474;2024-01-30T06:46:58;16.25;;;6.53;;
72611;SDS011;60655;52.182;4.474;2024-01-30T06:48:59;17.45;;;6.68;;
72611;SDS011;60655;52.182;4.474;2024-01-30T06:51:00;14.23;;;7.03;;
72611;SDS011;60655;52.182;4.474;2024-01-30T06:53:01;17.25;;;6.43;;
72611;SDS011;60655;52.182;4.474;2024-01-30T06:55:02;13.30;;;6.22;;
72611;SDS011;60655;52.182;4.474;2024-01-30T06:57:03;15.40;;;6.25;;
72611;SDS011;60655;52.182;4.474;2024-01-30T06:59:04;14.02;;;6.47;;
72611;SDS011;60655;52.182;4.474;2024-01-30T07:01:06;12.68;;;5.75;;
72611;SDS011;60655;52.182;4.474;2024-01-30T07:03:07;13.98;;;6.07;;
72611;SDS011;60655;52.182;4.474;2024-01-30T07:05:08;17.67;;;6.28;;
72611;SDS011;60655;52.182;4.474;2024-01-30T07:07:08;12.85;;;5.97;;
72611;SDS011;60655;52.182;4.474;2024-01-30T07:09:13;15.85;;;5.65;;
72611;SDS011;60655;52.182;4.474;2024-01-30T07:11:20;13.25;;;5.63;;
72611;SDS011;60655;52.182;4.474;2024-01-30T07:13:22;11.90;;;6.03;;
72611;SDS011;60655;52.182;4.474;2024-01-30T07:15:23;14.55;;;5.70;;
72611;SDS011;60655;52.182;4.474;2024-01-30T07:17:24;14.68;;;6.55;;
72611;SDS011;60655;52.182;4.474;2024-01-30T07:19:25;13.13;;;5.90;;
72611;SDS011;60655;52.182;4.474;2024-01-30T07:21:26;15.82;;;5.50;;
72611;SDS011;60655;52.182;4.474;2024-01-30T07:23:28;15.63;;;6.40;;
72611;SDS011;60655;52.182;4.474;2024-01-30T07:25:30;21.10;;;6.38;;
72611;SDS011;60655;52.182;4.474;2024-01-30T07:27:31;12.70;;;6.00;;
72611;SDS011;60655;52.182;4.474;2024-01-30T07:29:32;11.63;;;5.95;;
72611;SDS011;60655;52.182;4.474;2024-01-30T07:31:33;14.23;;;6.57;;
72611;SDS011;60655;52.182;4.474;2024-01-30T07:33:34;16.00;;;6.47;;
72611;SDS011;60655;52.182;4.474;2024-01-30T07:35:35;14.35;;;6.22;;
72611;SDS011;60655;52.182;4.474;2024-01-30T07:37:36;17.40;;;6.60;;
72611;SDS011;60655;52.182;4.474;2024-01-30T07:39:37;15.35;;;6.32;;
72611;SDS011;60655;52.182;4.474;2024-01-30T07:41:38;16.90;;;6.80;;
72611;SDS011;60655;52.182;4.474;2024-01-30T07:43:39;15.32;;;6.10;;
72611;SDS011;60655;52.182;4.474;2024-01-30T07:45:40;17.77;;;6.60;;
72611;SDS011;60655;52.182;4.474;2024-01-30T07:47:41;16.63;;;6.50;;
72611;SDS011;60655;52.182;4.474;2024-01-30T07:49:42;16.45;;;6.30;;
72611;SDS011;60655;52.182;4.474;2024-01-30T07:51:43;16.65;;;6.55;;
72611;SDS011;60655;52.182;4.474;2024-01-30T07:53:45;16.33;;;6.82;;
72611;SDS011;60655;52.182;4.474;2024-01-30T07:55:46;17.92;;;6.80;;
72611;SDS011;60655;52.182;4.474;2024-01-30T07:57:47;13.07;;;6.07;;
72611;SDS011;60655;52.182;4.474;2024-01-30T07:59:48;14.40;;;6.03;;
72611;SDS011;60655;52.182;4.474;2024-01-30T08:01:49;16.30;;;6.93;;
72611;SDS011;60655;52.182;4.474;2024-01-30T08:03:50;14.63;;;6.88;;
72611;SDS011;60655;52.182;4.474;2024-01-30T08:05:51;14.65;;;6.53;;
72611;SDS011;60655;52.182;4.474;2024-01-30T08:07:52;15.68;;;6.28;;
72611;SDS011;60655;52.182;4.474;2024-01-30T08:09:52;15.45;;;6.68;;
72611;SDS011;60655;52.182;4.474;2024-01-30T08:11:53;16.17;;;6.43;;
72611;SDS011;60655;52.182;4.474;2024-01-30T08:13:54;17.50;;;6.93;;
72611;SDS011;60655;52.182;4.474;2024-01-30T08:15:55;16.83;;;6.85;;
72611;SDS011;60655;52.182;4.474;2024-01-30T08:17:56;16.00;;;6.70;;
72611;SDS011;60655;52.182;4.474;2024-01-30T08:19:59;15.40;;;6.90;;
72611;SDS011;60655;52.182;4.474;2024-01-30T08:22:00;14.63;;;6.45;;
72611;SDS011;60655;52.182;4.474;2024-01-30T08:24:01;18.05;;;7.38;;
72611;SDS011;60655;52.182;4.474;2024-01-30T08:26:02;22.02;;;6.97;;
72611;SDS011;60655;52.182;4.474;2024-01-30T08:28:04;15.55;;;7.00;;
72611;SDS011;60655;52.182;4.474;2024-01-30T08:30:06;16.23;;;7.13;;
72611;SDS011;60655;52.182;4.474;2024-01-30T08:32:07;14.13;;;6.75;;
72611;SDS011;60655;52.182;4.474;2024-01-30T08:34:08;16.55;;;7.63;;
72611;SDS011;60655;52.182;4.474;2024-01-30T08:36:09;15.57;;;7.35;;
72611;SDS011;60655;52.182;4.474;2024-01-30T08:38:10;19.10;;;7.68;;
72611;SDS011;60655;52.182;4.474;2024-01-30T08:40:13;24.42;;;8.27;;
72611;SDS011;60655;52.182;4.474;2024-01-30T08:42:14;19.77;;;8.13;;
72611;SDS011;60655;52.182;4.474;2024-01-30T08:44:15;22.42;;;8.30;;
72611;SDS011;60655;52.182;4.474;2024-01-30T08:46:19;20.65;;;8.40;;
72611;SDS011;60655;52.182;4.474;2024-01-30T08:48:20;26.98;;;8.80;;
72611;SDS011;60655;52.182;4.474;2024-01-30T08:50:23;25.80;;;9.57;;
72611;SDS011;60655;52.182;4.474;2024-01-30T08:52:24;19.10;;;8.80;;
72611;SDS011;60655;52.182;4.474;2024-01-30T08:54:25;21.13;;;8.98;;
72611;SDS011;60655;52.182;4.474;2024-01-30T08:56:25;19.45;;;8.95;;
72611;SDS011;60655;52.182;4.474;2024-01-30T08:58:26;18.85;;;8.93;;
72611;SDS011;60655;52.182;4.474;2024-01-30T09:00:28;19.05;;;8.23;;
72611;SDS011;60655;52.182;4.474;2024-01-30T09:02:29;23.52;;;9.30;;
72611;SDS011;60655;52.182;4.474;2024-01-30T09:04:30;20.42;;;8.88;;
72611;SDS011;60655;52.182;4.474;2024-01-30T09:06:31;17.63;;;8.00;;
72611;SDS011;60655;52.182;4.474;2024-01-30T09:08:32;20.80;;;8.13;;
72611;SDS011;60655;52.182;4.474;2024-01-30T09:10:33;17.38;;;7.07;;
72611;SDS011;60655;52.182;4.474;2024-01-30T09:12:34;18.95;;;6.57;;
72611;SDS011;60655;52.182;4.474;2024-01-30T09:14:39;15.20;;;5.63;;
72611;SDS011;60655;52.182;4.474;2024-01-30T09:16:40;12.73;;;4.53;;
72611;SDS011;60655;52.182;4.474;2024-01-30T09:18:41;15.40;;;5.20;;
72611;SDS011;60655;52.182;4.474;2024-01-30T09:20:42;15.77;;;4.78;;
72611;SDS011;60655;52.182;4.474;2024-01-30T09:22:43;14.65;;;4.43;;
72611;SDS011;60655;52.182;4.474;2024-01-30T09:24:44;20.65;;;3.25;;
72611;SDS011;60655;52.182;4.474;2024-01-30T09:26:45;10.50;;;2.75;;
72611;SDS011;60655;52.182;4.474;2024-01-30T09:28:46;13.75;;;3.17;;
72611;SDS011;60655;52.182;4.474;2024-01-30T09:30:47;13.07;;;2.83;;
72611;SDS011;60655;52.182;4.474;2024-01-30T09:32:48;14.10;;;3.00;;
72611;SDS011;60655;52.182;4.474;2024-01-30T09:34:48;14.43;;;2.70;;
72611;SDS011;60655;52.182;4.474;2024-01-30T09:36:49;10.57;;;2.05;;
72611;SDS011;60655;52.182;4.474;2024-01-30T09:38:50;10.57;;;1.55;;
72611;SDS011;60655;52.182;4.474;2024-01-30T09:40:53;10.80;;;1.75;;
72611;SDS011;60655;52.182;4.474;2024-01-30T09:42:58;6.30;;;1.17;;
72611;SDS011;60655;52.182;4.474;2024-01-30T09:45:00;6.75;;;1.25;;
72611;SDS011;60655;52.182;4.474;2024-01-30T09:47:03;9.65;;;1.27;;
72611;SDS011;60655;52.182;4.474;2024-01-30T09:49:06;8.80;;;1.27;;
72611;SDS011;60655;52.182;4.474;2024-01-30T09:51:09;8.02;;;0.93;;
72611;SDS011;60655;52.182;4.474;2024-01-30T09:53:11;7.38;;;1.00;;
72611;SDS011;60655;52.182;4.474;2024-01-30T09:55:14;6.03;;;1.08;;
72611;SDS011;60655;52.182;4.474;2024-01-30T09:57:15;7.43;;;1.20;;
72611;SDS011;60655;52.182;4.474;2024-01-30T10:01:19;4.07;;;0.82;;
72611;SDS011;60655;52.182;4.474;2024-01-30T10:03:24;3.70;;;0.80;;
72611;SDS011;60655;52.182;4.474;2024-01-30T10:05:28;6.22;;;0.70;;
72611;SDS011;60655;52.182;4.474;2024-01-30T10:07:34;7.55;;;0.95;;
72611;SDS011;60655;52.182;4.474;2024-01-30T10:09:36;5.95;;;1.00;;
72611;SDS011;60655;52.182;4.474;2024-01-30T10:11:37;7.50;;;0.93;;
72611;SDS011;60655;52.182;4.474;2024-01-30T10:13:38;3.28;;;0.88;;
72611;SDS011;60655;52.182;4.474;2024-01-30T10:15:39;7.15;;;0.82;;
72611;SDS011;60655;52.182;4.474;2024-01-30T10:17:41;2.42;;;0.52;;
72611;SDS011;60655;52.182;4.474;2024-01-30T10:19:42;2.92;;;0.70;;
72611;SDS011;60655;52.182;4.474;2024-01-30T10:21:42;5.72;;;0.88;;
72611;SDS011;60655;52.182;4.474;2024-01-30T10:23:43;4.30;;;0.75;;
72611;SDS011;60655;52.182;4.474;2024-01-30T10:25:47;5.68;;;0.70;;
72611;SDS011;60655;52.182;4.474;2024-01-30T10:27:58;7.07;;;0.90;;
72611;SDS011;60655;52.182;4.474;2024-01-30T10:29:59;10.57;;;0.85;;
72611;SDS011;60655;52.182;4.474;2024-01-30T10:32:01;8.35;;;0.55;;
72611;SDS011;60655;52.182;4.474;2024-01-30T10:34:02;7.32;;;0.73;;
72611;SDS011;60655;52.182;4.474;2024-01-30T10:36:04;6.82;;;1.00;;
72611;SDS011;60655;52.182;4.474;2024-01-30T10:38:06;6.78;;;0.93;;
72611;SDS011;60655;52.182;4.474;2024-01-30T10:40:13;3.83;;;0.73;;
72611;SDS011;60655;52.182;4.474;2024-01-30T10:42:18;4.65;;;0.93;;
72611;SDS011;60655;52.182;4.474;2024-01-30T10:44:19;7.70;;;1.15;;
72611;SDS011;60655;52.182;4.474;2024-01-30T10:46:23;4.38;;;0.88;;
72611;SDS011;60655;52.182;4.474;2024-01-30T10:48:30;4.95;;;0.68;;
72611;SDS011;60655;52.182;4.474;2024-01-30T10:50:35;6.65;;;1.40;;
72611;SDS011;60655;52.182;4.474;2024-01-30T10:52:37;3.97;;;0.75;;
72611;SDS011;60655;52.182;4.474;2024-01-30T10:54:39;8.90;;;1.17;;
72611;SDS011;60655;52.182;4.474;2024-01-30T10:56:44;7.15;;;0.82;;
72611;SDS011;60655;52.182;4.474;2024-01-30T10:58:45;6.60;;;1.20;;
72611;SDS011;60655;52.182;4.474;2024-01-30T11:00:47;10.20;;;1.23;;
72611;SDS011;60655;52.182;4.474;2024-01-30T11:02:51;6.28;;;1.05;;
72611;SDS011;60655;52.182;4.474;2024-01-30T11:04:57;12.40;;;1.20;;
72611;SDS011;60655;52.182;4.474;2024-01-30T11:06:59;6.30;;;1.30;;
72611;SDS011;60655;52.182;4.474;2024-01-30T11:09:02;12.10;;;1.30;;
72611;SDS011;60655;52.182;4.474;2024-01-30T11:11:10;9.93;;;1.60;;
72611;SDS011;60655;52.182;4.474;2024-01-30T11:13:13;7.85;;;1.15;;
72611;SDS011;60655;52.182;4.474;2024-01-30T11:15:15;8.20;;;1.10;;
72611;SDS011;60655;52.182;4.474;2024-01-30T11:17:17;12.27;;;1.50;;
72611;SDS011;60655;52.182;4.474;2024-01-30T11:19:24;11.48;;;1.83;;
72611;SDS011;60655;52.182;4.474;2024-01-30T11:21:26;6.97;;;1.05;;
72611;SDS011;60655;52.182;4.474;2024-01-30T11:25:28;8.52;;;1.20;;
72611;SDS011;60655;52.182;4.474;2024-01-30T11:27:32;7.25;;;1.25;;
72611;SDS011;60655;52.182;4.474;2024-01-30T11:31:35;6.60;;;0.82;;
72611;SDS011;60655;52.182;4.474;2024-01-30T11:33:37;8.02;;;0.80;;
72611;SDS011;60655;52.182;4.474;2024-01-30T11:35:39;6.15;;;1.52;;
72611;SDS011;60655;52.182;4.474;2024-01-30T11:37:41;8.88;;;1.00;;
72611;SDS011;60655;52.182;4.474;2024-01-30T11:39:46;10.07;;;1.58;;
72611;SDS011;60655;52.182;4.474;2024-01-30T11:41:50;14.15;;;1.35;;
72611;SDS011;60655;52.182;4.474;2024-01-30T11:43:52;5.32;;;1.15;;
72611;SDS011;60655;52.182;4.474;2024-01-30T11:45:53;8.57;;;1.13;;
72611;SDS011;60655;52.182;4.474;2024-01-30T11:49:55;6.25;;;1.20;;
72611;SDS011;60655;52.182;4.474;2024-01-30T11:51:57;9.80;;;1.00;;
72611;SDS011;60655;52.182;4.474;2024-01-30T11:55:58;8.18;;;1.48;;
72611;SDS011;60655;52.182;4.474;2024-01-30T11:57:59;5.68;;;1.10;;
72611;SDS011;60655;52.182;4.474;2024-01-30T12:00:01;11.00;;;1.40;;
72611;SDS011;60655;52.182;4.474;2024-01-30T12:02:04;7.68;;;1.27;;
72611;SDS011;60655;52.182;4.474;2024-01-30T12:04:05;11.90;;;1.88;;
72611;SDS011;60655;52.182;4.474;2024-01-30T12:06:09;5.72;;;1.38;;
72611;SDS011;60655;52.182;4.474;2024-01-30T12:08:17;10.43;;;1.40;;
72611;SDS011;60655;52.182;4.474;2024-01-30T12:10:18;9.05;;;1.55;;
72611;SDS011;60655;52.182;4.474;2024-01-30T12:12:21;8.98;;;1.13;;
72611;SDS011;60655;52.182;4.474;2024-01-30T12:14:24;10.93;;;1.30;;
72611;SDS011;60655;52.182;4.474;2024-01-30T12:16:26;9.55;;;1.38;;
72611;SDS011;60655;52.182;4.474;2024-01-30T12:20:28;12.82;;;1.70;;
72611;SDS011;60655;52.182;4.474;2024-01-30T12:24:30;5.22;;;1.13;;
72611;SDS011;60655;52.182;4.474;2024-01-30T12:26:31;5.60;;;1.20;;
72611;SDS011;60655;52.182;4.474;2024-01-30T12:30:34;9.90;;;1.75;;
72611;SDS011;60655;52.182;4.474;2024-01-30T12:32:35;8.80;;;1.30;;
72611;SDS011;60655;52.182;4.474;2024-01-30T12:34:40;10.43;;;1.52;;
72611;SDS011;60655;52.182;4.474;2024-01-30T12:36:42;8.60;;;1.42;;
72611;SDS011;60655;52.182;4.474;2024-01-30T12:38:44;9.20;;;1.15;;
72611;SDS011;60655;52.182;4.474;2024-01-30T12:40:44;8.23;;;1.50;;
72611;SDS011;60655;52.182;4.474;2024-01-30T12:42:46;8.73;;;1.15;;
72611;SDS011;60655;52.182;4.474;2024-01-30T12:44:50;5.55;;;1.13;;
72611;SDS011;60655;52.182;4.474;2024-01-30T12:46:51;7.38;;;1.65;;
72611;SDS011;60655;52.182;4.474;2024-01-30T12:48:52;8.60;;;1.20;;
72611;SDS011;60655;52.182;4.474;2024-01-30T12:50:54;6.50;;;1.40;;
72611;SDS011;60655;52.182;4.474;2024-01-30T12:52:55;10.82;;;1.55;;
72611;SDS011;60655;52.182;4.474;2024-01-30T12:54:56;8.70;;;1.67;;
72611;SDS011;60655;52.182;4.474;2024-01-30T12:56:57;11.52;;;1.88;;
72611;SDS011;60655;52.182;4.474;2024-01-30T13:00:58;8.40;;;2.22;;
72611;SDS011;60655;52.182;4.474;2024-01-30T13:05:00;9.68;;;2.17;;
72611;SDS011;60655;52.182;4.474;2024-01-30T13:07:01;6.60;;;2.03;;
72611;SDS011;60655;52.182;4.474;2024-01-30T13:09:03;11.70;;;2.33;;
72611;SDS011;60655;52.182;4.474;2024-01-30T13:13:04;9.55;;;2.60;;
72611;SDS011;60655;52.182;4.474;2024-01-30T13:17:06;8.43;;;2.10;;
72611;SDS011;60655;52.182;4.474;2024-01-30T13:21:08;16.27;;;2.30;;
72611;SDS011;60655;52.182;4.474;2024-01-30T13:25:09;5.72;;;2.05;;
72611;SDS011;60655;52.182;4.474;2024-01-30T13:29:11;7.72;;;1.95;;
72611;SDS011;60655;52.182;4.474;2024-01-30T13:33:13;8.10;;;1.90;;
72611;SDS011;60655;52.182;4.474;2024-01-30T13:37:15;9.57;;;1.90;;
72611;SDS011;60655;52.182;4.474;2024-01-30T13:41:16;8.98;;;1.80;;
72611;SDS011;60655;52.182;4.474;2024-01-30T13:43:18;11.25;;;2.55;;
72611;SDS011;60655;52.182;4.474;2024-01-30T13:47:19;11.50;;;2.72;;
72611;SDS011;60655;52.182;4.474;2024-01-30T13:49:21;12.20;;;2.38;;
72611;SDS011;60655;52.182;4.474;2024-01-30T13:53:23;13.10;;;2.10;;
72611;SDS011;60655;52.182;4.474;2024-01-30T13:57:25;12.23;;;2.58;;
72611;SDS011;60655;52.182;4.474;2024-01-30T14:01:27;8.05;;;2.08;;
72611;SDS011;60655;52.182;4.474;2024-01-30T14:05:29;8.48;;;2.13;;
72611;SDS011;60655;52.182;4.474;2024-01-30T14:09:31;11.00;;;2.60;;